Time;durP1;ratioP1;P1;durP2;ratioP2;P2;SDS_P1;SDS_P2;PMS_P1;PMS_P2;Temp;Humidity;BMP_temperature;BMP_pressure;BME280_temperature;BME280_humidity;BME280_pressure;Samples;Min_cycle;Max_cycle;Signal;HPM_P1;HPM_P2
2023/10/12 00:01:24;;;;;;;14.60;14.10;;;16.30;99.90;;;;;;5071095;28;20214;-69
2023/10/12 00:03:55;;;;;;;15.38;14.68;;;16.30;99.90;;;;;;5065999;28;20235;-70
2023/10/12 00:06:23;;;;;;;15.88;15.27;;;16.30;99.90;;;;;;5071186;28;20682;-68
2023/10/12 00:08:50;;;;;;;15.35;14.65;;;16.40;99.90;;;;;;5071231;28;20208;-68
2023/10/12 00:11:20;;;;;;;14.63;14.07;;;16.40;99.90;;;;;;5071483;28;20242;-68
2023/10/12 00:13:51;;;;;;;15.35;14.75;;;16.40;99.90;;;;;;5066296;28;20284;-68
2023/10/12 00:16:19;;;;;;;15.43;14.85;;;16.40;99.90;;;;;;5067871;28;20294;-69
2023/10/12 00:18:49;;;;;;;14.75;14.25;;;16.30;99.90;;;;;;5065841;28;20566;-68
2023/10/12 00:21:25;;;;;;;16.30;15.68;;;16.30;99.90;;;;;;5071183;28;20632;-70
2023/10/12 00:23:53;;;;;;;15.80;15.23;;;16.20;99.90;;;;;;5071234;28;20697;-68
2023/10/12 00:26:20;;;;;;;16.27;15.60;;;16.20;99.90;;;;;;5071587;28;20207;-68
2023/10/12 00:28:50;;;;;;;16.83;16.02;;;16.10;99.90;;;;;;5071409;28;20233;-69
2023/10/12 00:31:18;;;;;;;15.68;15.07;;;16.10;99.90;;;;;;5071017;28;20666;-69
2023/10/12 00:33:48;;;;;;;17.88;17.23;;;16.00;99.90;;;;;;5070684;28;20805;-67
2023/10/12 00:36:21;;;;;;;16.63;16.02;;;15.90;99.90;;;;;;5067725;28;20583;-69
2023/10/12 00:38:48;;;;;;;16.63;16.02;;;15.90;99.90;;;;;;5070765;28;20227;-67
2023/10/12 00:41:17;;;;;;;15.82;15.23;;;15.90;99.90;;;;;;5066333;28;20208;-67
2023/10/12 00:43:57;;;;;;;23.90;23.00;;;15.90;99.90;;;;;;5070363;28;20597;-69
2023/10/12 00:46:40;;;;;;;16.17;15.57;;;15.90;99.90;;;;;;5071570;28;20290;-69
2023/10/12 00:49:22;;;;;;;16.30;15.70;;;15.90;99.90;;;;;;5071720;28;20199;-68
2023/10/12 00:51:51;;;;;;;15.05;14.50;;;15.90;99.90;;;;;;5069746;28;20222;-69
2023/10/12 00:54:27;;;;;;;15.23;14.70;;;15.80;99.90;;;;;;5075348;28;20640;-69
2023/10/12 00:56:56;;;;;;;16.35;15.75;;;15.80;99.90;;;;;;5085316;28;20685;-68
2023/10/12 00:59:27;;;;;;;17.63;17.02;;;15.80;99.90;;;;;;5087704;28;20226;-68
2023/10/12 01:01:54;;;;;;;17.98;17.25;;;15.80;99.90;;;;;;5088309;28;20210;-68
2023/10/12 01:04:22;;;;;;;16.17;15.57;;;15.80;99.90;;;;;;5090705;28;20227;-68
2023/10/12 01:06:50;;;;;;;18.98;18.27;;;15.80;99.90;;;;;;5085466;28;20587;-69
2023/10/12 01:09:19;;;;;;;19.55;18.65;;;15.70;99.90;;;;;;5074995;28;20206;-69
2023/10/12 01:11:58;;;;;;;18.58;17.88;;;15.70;99.90;;;;;;5079880;28;20233;-69
2023/10/12 01:14:28;;;;;;;18.15;17.50;;;15.70;99.90;;;;;;5076216;28;20231;-68
2023/10/12 01:16:58;;;;;;;20.65;19.90;;;15.70;99.90;;;;;;5079377;28;20215;-67
2023/10/12 01:19:30;;;;;;;18.52;17.83;;;15.70;99.90;;;;;;5078549;28;20725;-68
2023/10/12 01:22:05;;;;;;;18.95;18.25;;;15.60;99.90;;;;;;5078044;28;20225;-69
2023/10/12 01:24:31;;;;;;;18.25;17.52;;;15.60;99.90;;;;;;5071851;28;20230;-68
2023/10/12 01:26:59;;;;;;;18.08;17.38;;;15.60;99.90;;;;;;5076201;28;20207;-67
2023/10/12 01:29:26;;;;;;;18.55;17.88;;;15.60;99.90;;;;;;5075375;28;20207;-68
2023/10/12 01:32:20;;;;;;;17.83;17.23;;;15.60;99.90;;;;;;5075142;28;20211;-67
2023/10/12 01:34:52;;;;;;;19.10;18.30;;;15.60;99.90;;;;;;5072508;28;20234;-68
2023/10/12 01:37:25;;;;;;;19.48;18.75;;;15.60;99.90;;;;;;5074940;28;20207;-69
2023/10/12 01:40:10;;;;;;;18.05;17.35;;;15.60;99.90;;;;;;5071531;28;20325;-70
2023/10/12 01:42:42;;;;;;;21.30;20.50;;;15.60;99.90;;;;;;5070817;28;20257;-68
2023/10/12 01:45:18;;;;;;;18.55;17.85;;;15.60;99.90;;;;;;5071827;28;20241;-68
2023/10/12 01:47:50;;;;;;;19.95;18.95;;;15.60;99.90;;;;;;5074457;28;20215;-68
2023/10/12 01:50:17;;;;;;;18.38;17.70;;;15.60;99.90;;;;;;5074193;28;20252;-69
2023/10/12 01:52:46;;;;;;;17.88;17.25;;;15.60;99.90;;;;;;5075380;28;20755;-68
2023/10/12 01:55:28;;;;;;;23.27;22.38;;;15.70;99.90;;;;;;5068588;28;20215;-69
2023/10/12 01:57:55;;;;;;;17.45;16.85;;;15.70;99.90;;;;;;5076206;28;20209;-67
2023/10/12 02:00:26;;;;;;;18.77;18.02;;;15.70;99.90;;;;;;5070736;28;20228;-69
2023/10/12 02:03:02;;;;;;;17.05;16.45;;;15.80;99.90;;;;;;5076157;28;20662;-68
2023/10/12 02:05:34;;;;;;;19.63;18.93;;;15.70;99.90;;;;;;5083483;28;20218;-68
2023/10/12 02:08:05;;;;;;;16.38;15.77;;;15.70;99.90;;;;;;5080538;28;20231;-68
2023/10/12 02:10:41;;;;;;;22.20;21.33;;;15.70;99.90;;;;;;5072165;28;20210;-69
2023/10/12 02:13:10;;;;;;;16.88;16.20;;;15.70;99.90;;;;;;5074134;28;20284;-68
2023/10/12 02:15:38;;;;;;;17.17;16.52;;;15.70;99.90;;;;;;5076287;28;20253;-69
2023/10/12 02:18:10;;;;;;;19.27;18.57;;;15.70;99.90;;;;;;5075948;28;20229;-65
2023/10/12 02:20:42;;;;;;;16.83;16.20;;;15.80;99.90;;;;;;5075049;28;20229;-69
2023/10/12 02:23:11;;;;;;;18.75;17.77;;;15.70;99.90;;;;;;5068745;28;20780;-68
2023/10/12 02:25:50;;;;;;;16.48;15.88;;;15.70;99.90;;;;;;5072193;28;20222;-67
2023/10/12 02:28:22;;;;;;;17.85;17.25;;;15.70;99.90;;;;;;5075023;28;20252;-67
2023/10/12 02:30:50;;;;;;;17.13;16.42;;;15.70;99.90;;;;;;5072742;28;20211;-69
2023/10/12 02:33:21;;;;;;;17.85;17.20;;;15.60;99.90;;;;;;5067385;28;20231;-67
2023/10/12 02:35:49;;;;;;;17.98;17.27;;;15.60;99.90;;;;;;5063282;28;20601;-68
2023/10/12 02:38:19;;;;;;;17.70;17.10;;;15.60;99.90;;;;;;5071222;28;20211;-67
2023/10/12 02:40:46;;;;;;;15.20;14.70;;;15.70;99.90;;;;;;5075591;28;20254;-69
2023/10/12 02:43:15;;;;;;;17.55;16.95;;;15.60;99.90;;;;;;5074873;28;20242;-67
2023/10/12 02:45:42;;;;;;;16.92;16.33;;;15.60;99.90;;;;;;5074449;28;20647;-66
2023/10/12 02:48:13;;;;;;;16.63;16.03;;;15.60;99.90;;;;;;5073928;28;20207;-67
2023/10/12 02:50:57;;;;;;;16.38;15.77;;;15.60;99.90;;;;;;5073990;28;20210;-67
2023/10/12 02:53:28;;;;;;;15.90;15.30;;;15.60;99.90;;;;;;5081931;28;20243;-68
2023/10/12 02:55:58;;;;;;;16.38;15.77;;;15.60;99.90;;;;;;5090404;28;20237;-68
2023/10/12 02:58:26;;;;;;;16.58;15.98;;;15.60;99.90;;;;;;5091918;28;20199;-68
2023/10/12 03:00:56;;;;;;;16.50;15.90;;;15.60;99.90;;;;;;5092534;28;20234;-69
2023/10/12 03:03:25;;;;;;;18.02;17.38;;;15.60;99.90;;;;;;5082059;28;20224;-69
2023/10/12 03:05:53;;;;;;;17.73;17.13;;;15.60;99.90;;;;;;5084722;28;20218;-69
2023/10/12 03:08:22;;;;;;;19.30;18.50;;;15.60;99.90;;;;;;5074652;28;20249;-68
2023/10/12 03:11:12;;;;;;;19.35;18.65;;;15.60;99.90;;;;;;5066270;28;20204;-67
2023/10/12 03:13:42;;;;;;;17.40;16.75;;;15.60;99.90;;;;;;5070513;28;20616;-68
2023/10/12 03:16:13;;;;;;;16.37;15.77;;;15.50;99.90;;;;;;5064801;28;20203;-67
2023/10/12 03:18:42;;;;;;;15.68;15.07;;;15.60;99.90;;;;;;5071562;28;20294;-68
2023/10/12 03:21:12;;;;;;;17.23;16.63;;;15.60;99.90;;;;;;5072171;28;20595;-67
2023/10/12 03:23:41;;;;;;;16.73;16.13;;;15.60;99.90;;;;;;5072488;28;20310;-68
2023/10/12 03:26:20;;;;;;;16.35;15.75;;;15.60;99.90;;;;;;5073717;28;20320;-68
2023/10/12 03:28:49;;;;;;;17.60;16.90;;;15.50;99.90;;;;;;5072728;28;20214;-67
2023/10/12 03:31:22;;;;;;;17.33;16.65;;;15.60;99.90;;;;;;5071372;28;20214;-69
2023/10/12 03:33:54;;;;;;;17.08;16.48;;;15.60;99.90;;;;;;5072871;28;20314;-68
2023/10/12 03:36:25;;;;;;;16.60;16.00;;;15.60;99.90;;;;;;5072987;28;20302;-68
2023/10/12 03:42:09;;;;;;;16.85;16.25;;;15.60;99.90;;;;;;5030316;28;20375;-68
2023/10/12 03:44:41;;;;;;;16.45;15.80;;;15.50;99.90;;;;;;5067221;28;20273;-67
2023/10/12 03:47:16;;;;;;;17.55;16.95;;;15.50;99.90;;;;;;5072277;28;20222;-67
2023/10/12 03:49:57;;;;;;;17.42;16.83;;;15.50;99.90;;;;;;5072300;28;20210;-66
2023/10/12 03:52:31;;;;;;;17.15;16.55;;;15.50;99.90;;;;;;5067033;28;20292;-70
2023/10/12 03:55:16;;;;;;;16.48;15.77;;;15.50;99.90;;;;;;5077134;28;20268;-67
2023/10/12 03:57:50;;;;;;;17.40;16.73;;;15.50;99.90;;;;;;5074004;28;20214;-65
2023/10/12 04:00:32;;;;;;;18.27;17.48;;;15.40;99.90;;;;;;5080506;28;20223;-67
2023/10/12 04:03:03;;;;;;;19.55;18.85;;;15.40;99.90;;;;;;5076979;28;20231;-69
2023/10/12 04:05:45;;;;;;;28.00;26.95;;;15.40;99.90;;;;;;5068373;28;20230;-69
2023/10/12 04:08:38;;;;;;;19.17;18.40;;;15.30;99.90;;;;;;5067557;28;20230;-68
2023/10/12 04:14:10;;;;;;;18.77;18.08;;;15.30;99.90;;;;;;5070302;28;20517;-69
2023/10/12 04:16:40;;;;;;;20.73;19.93;;;15.40;99.90;;;;;;5068677;28;20210;-68
2023/10/12 04:19:08;;;;;;;20.15;19.40;;;15.30;99.90;;;;;;5070086;28;20203;-68
2023/10/12 04:21:40;;;;;;;19.80;19.10;;;15.30;99.90;;;;;;5076795;28;21350;-70
2023/10/12 04:24:27;;;;;;;20.88;20.17;;;15.30;99.90;;;;;;5076474;28;20654;-70
2023/10/12 04:27:12;;;;;;;19.08;18.27;;;15.30;99.90;;;;;;5073187;28;20300;-67
2023/10/12 04:29:40;;;;;;;20.98;20.17;;;15.30;99.90;;;;;;5073481;28;20218;-69
2023/10/12 04:32:15;;;;;;;20.33;19.63;;;15.30;99.90;;;;;;5075810;28;20214;-68
2023/10/12 04:34:49;;;;;;;19.65;18.95;;;15.30;99.90;;;;;;5076096;28;20242;-67
2023/10/12 04:37:22;;;;;;;20.15;19.45;;;15.20;99.90;;;;;;5075972;28;20242;-69
2023/10/12 04:39:56;;;;;;;18.23;17.63;;;15.20;99.90;;;;;;5076411;28;20203;-69
2023/10/12 04:42:27;;;;;;;20.20;19.38;;;15.20;99.90;;;;;;5075444;28;20203;-68
2023/10/12 04:45:22;;;;;;;18.85;18.08;;;15.20;99.90;;;;;;5075968;28;20710;-67
2023/10/12 04:47:54;;;;;;;19.70;18.90;;;15.20;99.90;;;;;;5073063;28;20207;-68
2023/10/12 04:50:42;;;;;;;19.30;18.60;;;15.20;99.90;;;;;;5072250;28;20254;-67
2023/10/12 04:53:09;;;;;;;19.10;18.40;;;15.20;99.90;;;;;;5075053;28;20703;-67
2023/10/12 04:55:36;;;;;;;19.85;19.05;;;15.10;99.90;;;;;;5075453;28;20203;-66
2023/10/12 04:58:30;;;;;;;19.93;19.13;;;15.10;99.90;;;;;;5058312;28;20585;-67
2023/10/12 05:01:12;;;;;;;20.17;19.47;;;15.10;99.90;;;;;;5054948;28;20632;-67
2023/10/12 05:03:41;;;;;;;19.73;18.92;;;15.10;99.90;;;;;;5055715;28;20227;-66
2023/10/12 05:06:08;;;;;;;20.00;19.30;;;15.20;99.90;;;;;;5055569;28;20285;-68
2023/10/12 05:08:36;;;;;;;19.43;18.73;;;15.20;99.90;;;;;;5067457;28;20278;-69
2023/10/12 05:11:06;;;;;;;23.40;22.58;;;15.20;99.90;;;;;;5054675;28;20212;-67
2023/10/12 05:13:33;;;;;;;18.83;18.13;;;15.20;99.90;;;;;;5054394;28;20324;-66
2023/10/12 05:16:08;;;;;;;21.77;20.98;;;15.20;99.90;;;;;;5054837;28;20207;-69
2023/10/12 05:18:35;;;;;;;19.05;18.30;;;15.20;99.90;;;;;;5054955;28;20207;-67
2023/10/12 05:21:04;;;;;;;19.48;18.77;;;15.20;99.90;;;;;;5054479;28;20607;-68
2023/10/12 05:23:31;;;;;;;20.02;19.33;;;15.20;99.90;;;;;;5061021;28;20247;-68
2023/10/12 05:26:10;;;;;;;20.05;19.25;;;15.20;99.90;;;;;;5074244;28;20213;-66
2023/10/12 05:28:47;;;;;;;21.15;20.35;;;15.20;99.90;;;;;;5074638;28;20211;-68
2023/10/12 05:31:20;;;;;;;19.25;18.52;;;15.10;99.90;;;;;;5073929;28;20202;-68
2023/10/12 05:36:29;;;;;;;20.63;19.90;;;15.00;99.90;;;;;;5074312;28;20223;-65
2023/10/12 05:39:11;;;;;;;23.13;22.23;;;15.00;99.90;;;;;;5071131;28;20253;-66
2023/10/12 05:41:40;;;;;;;19.70;18.90;;;15.00;99.90;;;;;;5070204;28;20231;-69
2023/10/12 05:44:13;;;;;;;22.75;21.85;;;15.00;99.90;;;;;;5072348;28;20591;-66
2023/10/12 05:46:44;;;;;;;18.92;18.20;;;15.00;99.90;;;;;;5070216;28;20211;-69
2023/10/12 05:49:13;;;;;;;20.77;20.00;;;15.00;99.90;;;;;;5073756;28;20298;-65
2023/10/12 05:51:43;;;;;;;19.50;18.70;;;15.00;99.90;;;;;;5073635;28;20203;-65
2023/10/12 05:54:15;;;;;;;20.00;19.25;;;15.00;99.90;;;;;;5075587;28;20309;-66
2023/10/12 05:56:43;;;;;;;20.05;19.33;;;15.00;99.90;;;;;;5076267;28;20413;-65
2023/10/12 05:59:12;;;;;;;21.40;20.60;;;15.00;99.90;;;;;;5071447;28;20246;-66
2023/10/12 06:01:40;;;;;;;18.80;18.10;;;15.00;99.90;;;;;;5074391;28;20231;-66
2023/10/12 06:04:07;;;;;;;20.52;19.70;;;15.10;99.90;;;;;;5071736;28;20237;-67
2023/10/12 06:06:36;;;;;;;18.83;18.02;;;15.10;99.90;;;;;;5072863;28;20588;-67
2023/10/12 06:09:11;;;;;;;19.30;18.60;;;15.10;99.90;;;;;;5074089;28;20286;-66
2023/10/12 06:11:40;;;;;;;17.87;17.17;;;15.10;99.90;;;;;;5073730;28;20282;-68
2023/10/12 06:14:08;;;;;;;19.42;18.73;;;15.20;99.90;;;;;;5053080;28;20643;-66
2023/10/12 06:16:40;;;;;;;17.55;16.95;;;15.10;99.90;;;;;;5053323;28;20211;-67
2023/10/12 06:19:18;;;;;;;23.38;22.50;;;15.20;99.90;;;;;;5052440;28;20212;-67
2023/10/12 06:21:46;;;;;;;19.00;18.30;;;15.20;99.90;;;;;;5051980;28;20242;-68
2023/10/12 06:24:13;;;;;;;18.52;17.83;;;15.30;99.90;;;;;;5051967;28;20234;-67
2023/10/12 06:26:44;;;;;;;19.17;18.48;;;15.30;99.90;;;;;;5053704;28;20211;-67
2023/10/12 06:29:11;;;;;;;18.17;17.47;;;15.40;99.90;;;;;;5061182;28;20203;-66
2023/10/12 06:31:39;;;;;;;16.97;16.37;;;15.50;99.90;;;;;;5072089;28;20257;-65
2023/10/12 06:34:10;;;;;;;17.80;17.20;;;15.50;99.90;;;;;;5072667;28;20227;-65
2023/10/12 06:36:39;;;;;;;17.67;17.00;;;15.60;99.90;;;;;;5060103;28;20262;-66
2023/10/12 06:42:08;;;;;;;16.20;15.55;;;15.70;99.90;;;;;;5051983;28;20320;-66
2023/10/12 06:44:34;;;;;;;16.07;15.47;;;15.80;99.90;;;;;;5052746;28;20274;-67
2023/10/12 06:47:23;;;;;;;15.52;14.93;;;15.80;99.90;;;;;;5063137;28;20265;-67
2023/10/12 06:49:49;;;;;;;16.30;15.50;;;16.00;99.90;;;;;;5069180;28;20294;-67
2023/10/12 06:52:19;;;;;;;15.83;15.13;;;16.10;99.90;;;;;;5077387;28;20210;-67
2023/10/12 06:54:54;;;;;;;15.45;14.85;;;16.20;99.90;;;;;;5073079;28;20235;-66
2023/10/12 06:57:37;;;;;;;15.85;15.25;;;16.30;99.90;;;;;;5073049;28;20211;-66
2023/10/12 07:00:34;;;;;;;15.80;15.20;;;16.30;99.90;;;;;;5072490;28;20207;-66
2023/10/12 07:03:00;;;;;;;16.45;15.82;;;16.40;99.90;;;;;;5069508;28;20235;-65
2023/10/12 07:05:37;;;;;;;16.67;16.00;;;16.50;99.90;;;;;;5072376;28;20206;-66
2023/10/12 07:08:15;;;;;;;15.55;14.88;;;16.60;99.90;;;;;;5071495;28;20230;-66
2023/10/12 07:10:53;;;;;;;14.60;14.00;;;16.70;99.90;;;;;;5068841;28;20286;-66
2023/10/12 07:13:25;;;;;;;15.20;14.68;;;16.80;99.90;;;;;;5068777;28;20284;-67
2023/10/12 07:15:52;;;;;;;14.77;14.23;;;17.00;99.90;;;;;;5071320;28;20203;-66
2023/10/12 07:18:22;;;;;;;15.60;15.00;;;17.10;99.90;;;;;;5063266;28;20230;-66
2023/10/12 07:20:48;;;;;;;17.27;16.67;;;17.20;99.90;;;;;;5062819;28;20262;-67
2023/10/12 07:23:19;;;;;;;16.40;15.80;;;17.30;99.90;;;;;;5053295;28;20232;-67
2023/10/12 07:25:48;;;;;;;17.15;16.55;;;17.40;99.90;;;;;;5071976;28;20575;-66
2023/10/12 07:28:18;;;;;;;16.83;16.13;;;17.50;99.90;;;;;;5071930;28;20243;-67
2023/10/12 07:31:04;;;;;;;15.23;14.65;;;17.50;99.90;;;;;;5071668;28;20207;-66
2023/10/12 07:33:31;;;;;;;16.35;15.75;;;17.70;99.90;;;;;;5072686;28;20238;-67
2023/10/12 07:36:08;;;;;;;15.82;15.23;;;17.90;99.90;;;;;;5071812;28;20282;-66
2023/10/12 07:38:36;;;;;;;15.57;15.07;;;18.00;99.90;;;;;;5072307;28;20215;-66
2023/10/12 07:41:04;;;;;;;15.23;14.63;;;18.10;99.90;;;;;;5072861;28;20354;-68
2023/10/12 07:43:32;;;;;;;16.00;15.40;;;18.20;99.90;;;;;;5074195;28;20310;-67
2023/10/12 07:46:09;;;;;;;16.00;15.40;;;18.20;99.90;;;;;;5071740;28;20207;-67
2023/10/12 07:48:42;;;;;;;15.73;15.17;;;18.30;99.90;;;;;;5066751;28;20207;-67
2023/10/12 07:51:16;;;;;;;15.32;14.73;;;18.30;99.90;;;;;;5071463;28;20227;-67
2023/10/12 07:53:44;;;;;;;16.05;15.45;;;18.40;99.90;;;;;;5057102;28;20323;-68
2023/10/12 07:56:16;;;;;;;15.43;14.85;;;18.60;99.90;;;;;;5060135;28;20211;-66
2023/10/12 07:58:43;;;;;;;14.23;13.63;;;18.80;99.90;;;;;;5076687;28;20249;-66
2023/10/12 08:01:22;;;;;;;14.88;14.27;;;19.00;99.90;;;;;;5066697;28;20693;-66
2023/10/12 08:03:52;;;;;;;15.10;14.50;;;19.20;99.90;;;;;;5069173;28;20289;-67
2023/10/12 08:06:19;;;;;;;14.88;14.27;;;19.30;99.90;;;;;;5066104;28;20561;-65
2023/10/12 08:08:48;;;;;;;15.48;14.88;;;19.40;99.90;;;;;;5075616;28;20230;-68
2023/10/12 08:11:27;;;;;;;15.00;14.50;;;19.40;99.90;;;;;;5075645;28;20588;-68
2023/10/12 08:13:55;;;;;;;15.63;15.13;;;19.50;99.90;;;;;;5075629;28;20233;-66
2023/10/12 08:16:28;;;;;;;15.20;14.70;;;19.60;99.90;;;;;;5070356;28;20336;-66
2023/10/12 08:21:58;;;;;;;16.00;15.40;;;19.90;99.90;;;;;;5049879;28;20323;-68
2023/10/12 08:24:26;;;;;;;14.77;14.23;;;20.00;99.90;;;;;;5075089;28;20318;-68
2023/10/12 08:27:00;;;;;;;15.32;14.82;;;20.10;99.90;;;;;;5060075;28;20219;-68
2023/10/12 08:38:06;;;;;;;14.80;14.20;;;20.60;99.90;;;;;;5052698;28;20214;-68
2023/10/12 08:40:27;;;;;;;14.45;13.80;;;20.80;99.90;;;;;;5054599;28;20293;-66
2023/10/12 08:42:58;;;;;;;17.83;17.02;;;21.10;99.90;;;;;;5072613;28;20390;-66
2023/10/12 08:45:26;;;;;;;16.48;15.88;;;21.20;99.90;;;;;;5074868;28;20704;-66
2023/10/12 08:47:54;;;;;;;16.52;15.93;;;21.30;99.90;;;;;;5074373;28;20206;-68
2023/10/12 08:53:07;;;;;;;15.88;15.27;;;21.60;99.90;;;;;;5074180;28;20540;-68
2023/10/12 08:55:36;;;;;;;16.05;15.45;;;21.70;99.90;;;;;;5074641;28;20214;-68
2023/10/12 08:58:13;;;;;;;18.05;17.35;;;21.70;99.90;;;;;;5073935;28;20733;-67
2023/10/12 09:00:43;;;;;;;15.45;14.90;;;21.80;99.90;;;;;;5074006;28;20211;-68
2023/10/12 09:03:24;;;;;;;15.23;14.63;;;21.90;99.90;;;;;;5067936;28;20245;-68
2023/10/12 09:05:52;;;;;;;16.02;15.43;;;22.00;99.90;;;;;;5073864;28;20206;-66
2023/10/12 09:11:13;;;;;;;17.03;16.43;;;22.20;99.90;;;;;;5073594;28;20328;-68
2023/10/12 09:13:45;;;;;;;16.85;16.25;;;22.30;99.90;;;;;;5073821;28;20280;-68
2023/10/12 09:16:14;;;;;;;15.52;14.95;;;22.30;99.90;;;;;;5073439;28;20214;-67
2023/10/12 09:18:44;;;;;;;16.90;16.30;;;22.40;99.90;;;;;;5073464;28;20302;-68
2023/10/12 09:21:23;;;;;;;15.98;15.30;;;22.50;99.90;;;;;;5073692;28;20273;-67
2023/10/12 09:23:52;;;;;;;16.45;15.85;;;22.60;99.90;;;;;;5074074;28;20230;-67
2023/10/12 09:26:30;;;;;;;17.65;17.05;;;22.70;99.90;;;;;;5073468;28;20211;-66
2023/10/12 09:29:08;;;;;;;17.23;16.55;;;22.80;99.90;;;;;;5072954;28;20210;-67
2023/10/12 09:32:12;;;;;;;17.25;16.52;;;22.80;99.90;;;;;;5073280;28;20309;-66
2023/10/12 09:34:42;;;;;;;16.67;16.08;;;22.90;99.90;;;;;;5073127;28;20657;-68
2023/10/12 09:37:16;;;;;;;18.33;17.65;;;23.00;99.90;;;;;;5073861;28;20210;-68
2023/10/12 09:39:45;;;;;;;18.02;17.33;;;23.00;99.90;;;;;;5073478;28;20211;-66
2023/10/12 09:42:22;;;;;;;16.52;15.93;;;23.00;99.90;;;;;;5068691;28;20230;-69
2023/10/12 09:44:53;;;;;;;18.55;17.85;;;23.10;99.90;;;;;;5077809;28;20223;-68
2023/10/12 09:47:25;;;;;;;18.48;17.75;;;23.10;99.90;;;;;;5074612;28;20218;-68
2023/10/12 09:49:59;;;;;;;15.75;15.15;;;23.10;99.90;;;;;;5079207;28;20207;-66
2023/10/12 09:52:42;;;;;;;17.35;16.75;;;23.10;99.90;;;;;;5077683;28;20278;-67
2023/10/12 09:55:15;;;;;;;15.00;14.40;;;23.10;99.90;;;;;;5075216;28;20203;-69
2023/10/12 09:57:49;;;;;;;14.90;14.32;;;23.10;99.90;;;;;;5076959;28;20219;-67
2023/10/12 10:00:28;;;;;;;14.95;14.45;;;23.20;99.90;;;;;;5075534;28;20220;-67
2023/10/12 10:02:59;;;;;;;15.88;15.27;;;23.30;99.90;;;;;;5078246;28;20258;-67
2023/10/12 10:05:51;;;;;;;15.85;15.25;;;23.40;99.90;;;;;;5075950;28;20245;-68
2023/10/12 10:08:18;;;;;;;16.95;16.35;;;23.50;99.90;;;;;;5076188;28;20297;-67
2023/10/12 10:10:45;;;;;;;17.35;16.65;;;23.70;99.90;;;;;;5072703;28;20212;-67
2023/10/12 10:13:40;;;;;;;16.42;15.82;;;24.20;99.90;;;;;;5074046;28;20297;-67
2023/10/12 10:16:10;;;;;;;16.00;15.40;;;24.60;99.90;;;;;;5073262;28;20212;-68
2023/10/12 10:18:49;;;;;;;16.02;15.45;;;24.60;99.90;;;;;;5073060;28;20214;-67
2023/10/12 10:21:19;;;;;;;16.08;15.48;;;24.60;99.90;;;;;;5069598;28;20242;-67
2023/10/12 10:23:49;;;;;;;15.93;15.32;;;24.60;99.90;;;;;;5072382;28;20356;-66
2023/10/12 10:26:20;;;;;;;15.98;15.38;;;24.60;99.90;;;;;;5071638;28;20294;-66
2023/10/12 10:28:55;;;;;;;16.35;15.75;;;24.60;99.90;;;;;;5069337;28;20211;-68
2023/10/12 10:31:26;;;;;;;15.85;15.25;;;24.60;99.90;;;;;;5072752;28;20674;-67
2023/10/12 10:33:57;;;;;;;15.50;14.90;;;24.60;99.90;;;;;;5063365;28;20232;-67
2023/10/12 10:36:27;;;;;;;16.70;16.00;;;24.50;99.90;;;;;;5084474;28;20260;-67
2023/10/12 10:38:54;;;;;;;15.63;15.02;;;24.50;99.90;;;;;;5073906;28;20212;-66
2023/10/12 10:41:38;;;;;;;16.23;15.63;;;24.40;99.90;;;;;;5083645;28;20208;-66
2023/10/12 10:44:08;;;;;;;15.35;14.75;;;24.50;99.90;;;;;;5081906;28;20234;-67
2023/10/12 10:46:40;;;;;;;16.10;15.50;;;24.40;99.90;;;;;;5076692;28;20283;-67
2023/10/12 10:49:07;;;;;;;16.13;15.52;;;24.40;99.90;;;;;;5073214;28;20230;-66
2023/10/12 10:51:33;;;;;;;16.13;15.52;;;24.50;99.90;;;;;;5072556;28;20308;-66
2023/10/12 10:54:03;;;;;;;16.20;15.60;;;24.50;99.90;;;;;;5070273;28;20227;-67
2023/10/12 10:56:35;;;;;;;16.08;15.48;;;24.60;99.90;;;;;;5073979;28;20203;-66
2023/10/12 10:59:01;;;;;;;16.70;16.00;;;24.60;99.90;;;;;;5072214;28;20253;-66
2023/10/12 11:01:30;;;;;;;16.17;15.57;;;24.60;99.90;;;;;;5069175;28;21057;-67
2023/10/12 11:03:58;;;;;;;17.10;16.50;;;24.60;99.90;;;;;;5071792;28;20305;-66
2023/10/12 11:06:27;;;;;;;16.55;15.95;;;24.60;99.90;;;;;;5072058;28;20211;-66
2023/10/12 11:09:05;;;;;;;16.27;15.68;;;24.70;99.90;;;;;;5072002;28;20203;-67
2023/10/12 11:11:38;;;;;;;16.50;15.82;;;24.70;99.90;;;;;;5066664;28;20203;-67
2023/10/12 11:14:05;;;;;;;16.35;15.75;;;24.70;99.90;;;;;;5071877;28;20231;-67
2023/10/12 11:16:36;;;;;;;17.10;16.40;;;24.60;99.90;;;;;;5063640;28;20215;-67
2023/10/12 11:19:08;;;;;;;16.30;15.70;;;24.70;99.90;;;;;;5071336;28;20234;-66
2023/10/12 11:21:35;;;;;;;17.05;16.38;;;24.70;99.90;;;;;;5066482;28;20211;-66
2023/10/12 11:24:03;;;;;;;16.20;15.60;;;24.80;99.90;;;;;;5071874;28;20237;-66
2023/10/12 11:26:39;;;;;;;16.40;15.70;;;24.90;99.90;;;;;;5069905;28;20214;-66
2023/10/12 11:29:10;;;;;;;16.58;15.98;;;25.00;99.90;;;;;;5072991;28;20272;-66
2023/10/12 11:31:39;;;;;;;16.27;15.52;;;25.10;99.90;;;;;;5069028;28;20204;-67
2023/10/12 11:34:11;;;;;;;15.40;14.90;;;25.20;99.90;;;;;;5077441;28;20306;-67
2023/10/12 11:36:38;;;;;;;16.67;16.08;;;25.30;99.90;;;;;;5068372;28;20215;-67
2023/10/12 11:39:16;;;;;;;16.67;15.98;;;25.30;99.90;;;;;;5066900;28;20218;-67
2023/10/12 11:41:43;;;;;;;16.83;16.23;;;25.30;99.90;;;;;;5071991;28;20202;-67
2023/10/12 11:44:12;;;;;;;17.40;16.80;;;25.30;99.90;;;;;;5065468;28;20234;-67
2023/10/12 11:46:44;;;;;;;17.70;17.00;;;25.40;99.90;;;;;;5063651;28;20289;-67
2023/10/12 11:49:11;;;;;;;18.23;17.52;;;25.50;99.90;;;;;;5065448;28;20558;-67
2023/10/12 11:51:42;;;;;;;18.17;17.48;;;25.60;99.90;;;;;;5071664;28;20203;-67
2023/10/12 11:54:19;;;;;;;19.05;18.35;;;25.60;99.90;;;;;;5071396;28;20241;-68
2023/10/12 11:56:49;;;;;;;18.70;18.00;;;25.60;99.90;;;;;;5071832;28;20234;-67
2023/10/12 11:59:25;;;;;;;17.75;17.05;;;25.70;99.90;;;;;;5072270;28;20203;-69
2023/10/12 12:01:57;;;;;;;18.20;17.50;;;25.60;99.90;;;;;;5071212;28;20222;-67
2023/10/12 12:04:31;;;;;;;18.15;17.55;;;25.60;99.90;;;;;;5071316;28;20226;-67
2023/10/12 12:06:59;;;;;;;17.20;16.60;;;25.60;99.90;;;;;;5072301;28;20206;-68
2023/10/12 12:09:27;;;;;;;17.95;17.35;;;25.50;99.90;;;;;;5072141;28;20261;-67
2023/10/12 12:11:55;;;;;;;18.15;17.33;;;25.60;99.90;;;;;;5072434;28;20214;-67
2023/10/12 12:14:21;;;;;;;17.52;16.77;;;25.60;99.90;;;;;;5071973;28;20610;-67
2023/10/12 12:16:48;;;;;;;17.77;17.17;;;25.50;99.90;;;;;;5072417;28;20203;-66
2023/10/12 12:19:19;;;;;;;17.58;16.88;;;25.50;99.90;;;;;;5069426;28;20212;-65
2023/10/12 12:21:46;;;;;;;19.00;18.23;;;25.50;99.90;;;;;;5067852;28;20214;-67
2023/10/12 12:24:21;;;;;;;18.25;17.52;;;25.40;99.90;;;;;;5072527;28;20227;-65
2023/10/12 12:26:49;;;;;;;17.65;16.95;;;25.30;99.90;;;;;;5072217;28;20217;-67
2023/10/12 12:29:21;;;;;;;16.13;15.52;;;25.20;99.90;;;;;;5072219;28;20230;-67
2023/10/12 12:31:48;;;;;;;18.13;17.48;;;25.10;99.90;;;;;;5071448;28;20626;-66
2023/10/12 12:34:34;;;;;;;18.02;17.33;;;25.10;99.90;;;;;;5070238;28;20686;-66
2023/10/12 12:37:05;;;;;;;17.38;16.77;;;25.10;99.90;;;;;;5072108;28;20628;-66
2023/10/12 12:39:34;;;;;;;17.30;16.50;;;25.10;99.90;;;;;;5068735;28;20218;-66
2023/10/12 12:42:01;;;;;;;17.85;17.05;;;25.20;99.90;;;;;;5076263;28;20207;-66
2023/10/12 12:44:28;;;;;;;17.35;16.75;;;25.20;99.90;;;;;;5075654;28;20223;-68
2023/10/12 12:46:55;;;;;;;17.73;17.02;;;25.30;99.90;;;;;;5075768;28;20222;-67
2023/10/12 12:49:24;;;;;;;17.83;17.23;;;25.40;99.90;;;;;;5075729;28;20213;-69
2023/10/12 12:51:51;;;;;;;18.90;18.20;;;25.40;99.90;;;;;;5075579;28;20210;-67
2023/10/12 12:54:17;;;;;;;17.83;17.20;;;25.40;99.90;;;;;;5075847;28;20226;-67
2023/10/12 12:56:44;;;;;;;18.77;18.08;;;25.50;99.90;;;;;;5075309;28;20588;-67
2023/10/12 12:59:11;;;;;;;17.92;17.23;;;25.50;99.90;;;;;;5072660;28;20207;-68
2023/10/12 13:01:39;;;;;;;17.70;17.02;;;25.50;99.90;;;;;;5070610;28;20667;-67
2023/10/12 13:04:05;;;;;;;18.10;17.40;;;25.60;99.90;;;;;;5058867;28;20244;-67
2023/10/12 13:06:34;;;;;;;19.05;18.35;;;25.60;99.90;;;;;;5055019;28;20212;-67
2023/10/12 13:09:01;;;;;;;20.10;19.30;;;25.60;99.90;;;;;;5054717;28;20212;-67
2023/10/12 13:11:28;;;;;;;17.55;16.80;;;25.60;99.90;;;;;;5055098;28;20208;-67
2023/10/12 13:13:55;;;;;;;18.30;17.60;;;25.60;99.90;;;;;;5054871;28;20234;-67
2023/10/12 13:16:21;;;;;;;19.05;18.35;;;25.70;99.90;;;;;;5057164;28;20686;-68
2023/10/12 13:18:48;;;;;;;18.38;17.75;;;25.70;99.90;;;;;;5074349;28;20217;-68
2023/10/12 13:21:15;;;;;;;16.83;16.23;;;25.70;99.90;;;;;;5075450;28;20211;-68